Flight Track Log - Related Links

Times and Time Zones

All times are in EDT time to prevent confusion due to time zone crossing. See the LNI696 flight status page for this flight to view local times or setup timezone preferences in your user account.

Time Position Orientation Groundspeed Altitude Reporting Facility
EDT Latitude Longitude Course Direction KTS MPH feet Rate Location/Type
Fri 06:46:55 AM -6.1370 106.7030 121° Southeast 193 222 1,800  Level FlightAware ADS-B
Fri 06:47:11 AM -6.1500 106.7130 143° Southeast 213 245 2,100 1,167 Climbing FlightAware ADS-B
Fri 06:47:31 AM -6.1650 106.7280 135° Southeast 238 274 2,500 1,350 Climbing FlightAware ADS-B
Fri 06:47:51 AM -6.1810 106.7450 133° Southeast 259 298 3,000 1,902 Climbing FlightAware ADS-B
Fri 06:48:12 AM -6.1970 106.7640 130° Southeast 268 308 3,800 2,571 Climbing FlightAware ADS-B
Fri 06:48:33 AM -6.2140 106.7850 129° Southeast 266 306 4,800 2,927 Climbing FlightAware ADS-B
Fri 06:48:53 AM -6.2300 106.8040 130° Southeast 263 303 5,800 2,714 Climbing FlightAware ADS-B
Fri 06:49:15 AM -6.2480 106.8240 132° Southeast 265 305 6,700 2,455 Climbing FlightAware ADS-B
Fri 06:49:37 AM -6.2660 106.8450 131° Southeast 270 311 7,600 2,429 Climbing FlightAware ADS-B
Fri 06:49:57 AM -6.2810 106.8650 127° Southeast 272 313 8,400 2,211 Climbing FlightAware ADS-B
Fri 06:50:15 AM -6.2910 106.8860 116° Southeast 275 316 9,000 2,143 Climbing FlightAware ADS-B
Fri 06:50:53 AM -6.3120 106.9290 116° Southeast 280 322 10,400 1,622 Climbing FlightAware ADS-B
Fri 06:51:29 AM -6.3340 106.9740 116° Southeast 313 360 11,000 1,029 Climbing FlightAware ADS-B
Fri 06:52:03 AM -6.3550 107.0220 114° Southeast 341 392 11,600 1,714 Climbing FlightAware ADS-B
Fri 06:52:39 AM -6.3770 107.0760 112° Southeast 343 395 13,000 2,167 Climbing FlightAware ADS-B
Fri 06:53:15 AM -6.3990 107.1300 112° Southeast 354 407 14,200 1,701 Climbing FlightAware ADS-B
Fri 06:53:46 AM -6.4180 107.1760 113° Southeast 369 425 14,900 1,701 Climbing FlightAware ADS-B
Fri 06:54:22 AM -6.4430 107.2360 113° Southeast 380 437 16,100 2,108 Climbing FlightAware ADS-B
Fri 06:55:00 AM -6.4690 107.2990 113° Southeast 384 442 17,500 2,167 Climbing FlightAware ADS-B
Fri 06:55:34 AM -6.4920 107.3560 112° Southeast 387 445 18,700 1,765 Climbing FlightAware ADS-B
Fri 06:56:08 AM -6.5140 107.4120 112° Southeast 399 459 19,500 1,371 Climbing FlightAware ADS-B
Fri 06:56:44 AM -6.5390 107.4760 111° Southeast 410 472 20,300 1,412 Climbing FlightAware ADS-B
Fri 06:57:16 AM -6.5500 107.5340 101° East 417 480 21,100 1,455 Climbing FlightAware ADS-B
Fri 06:57:50 AM -6.5590 107.5960 98° East 423 487 21,900 1,543 Climbing FlightAware ADS-B
Fri 06:58:26 AM -6.5690 107.6720 98° East 432 497 22,900 1,500 Climbing FlightAware ADS-B
Fri 06:59:02 AM -6.5800 107.7450 99° East 437 503 23,700 1,500 Climbing FlightAware ADS-B
Fri 06:59:38 AM -6.5910 107.8180 99° East 438 504 24,700 1,543 Climbing FlightAware ADS-B
Fri 07:00:12 AM -6.6010 107.8870 98° East 442 509 25,500 1,200 Climbing FlightAware ADS-B
Fri 07:00:48 AM -6.6120 107.9610 99° East 448 516 26,100 973 Climbing FlightAware ADS-B
Fri 07:01:26 AM -6.6240 108.0360 99° East 456 525 26,700 1,714 Climbing FlightAware ADS-B
Fri 07:01:58 AM -6.6340 108.1050 98° East 436 502 28,100 2,029 Climbing FlightAware ADS-B
Fri 07:02:34 AM -6.6450 108.1770 99° East 432 497 29,000 930 Climbing FlightAware ADS-B
Fri 07:03:09 AM -6.6560 108.2460 99° East 446 513 29,200 250 Climbing FlightAware ADS-B
Fri 07:03:46 AM -6.6680 108.3240 99° East 461 531 29,300 348 Climbing FlightAware ADS-B
Fri 07:04:18 AM -6.6780 108.3930 98° East 470 541 29,600 706 Climbing FlightAware ADS-B
Fri 07:04:54 AM -6.6900 108.4700 99° East 471 542 30,100 833 Climbing FlightAware ADS-B
Fri 07:05:30 AM -6.7020 108.5500 99° East 473 544 30,600 971 Climbing FlightAware ADS-B
Fri 07:06:02 AM -6.7120 108.6180 98° East 472 543 31,200 971 Climbing FlightAware ADS-B
Fri 07:06:38 AM -6.7230 108.6950 98° East 472 543 31,700 833 Climbing FlightAware ADS-B
Fri 07:07:14 AM -6.7350 108.7740 99° East 473 544 32,200 917 Climbing FlightAware ADS-B
Fri 07:07:50 AM -6.7480 108.8540 99° East 473 544 32,800 870 Climbing FlightAware ADS-B
Fri 07:08:23 AM -6.7580 108.9190 99° East 474 545 33,200 343 Climbing FlightAware ADS-B
Fri 07:09:00 AM -6.7670 108.9880 97° East 474 545 33,200  Level FlightAware ADS-B
Fri 07:09:36 AM -6.7770 109.0550 99° East 474 545 33,200 1,522 Level FlightAware ADS-B
Fri 07:10:07 AM -6.7910 109.1460 99° East 467 537 34,900 1,612 Climbing FlightAware ADS-B
Fri 07:10:43 AM -6.8030 109.2260 99° East 466 536 35,000 83 Climbing FlightAware ADS-B
Fri 07:11:19 AM -6.8150 109.3030 99° East 465 535 35,000  Level FlightAware ADS-B
Fri 07:11:41 AM -6.8220 109.3500 99° East 464 534 35,000  Level FlightAware ADS-B
Fri 07:12:37 AM -6.8390 109.4680 98° East 464 534 35,000  Level FlightAware ADS-B
Fri 07:13:13 AM -6.8510 109.5470 99° East 463 533 35,000  Level FlightAware ADS-B
Fri 07:13:45 AM -6.8610 109.6130 99° East 462 532 35,000  Level FlightAware ADS-B
Fri 07:14:22 AM -6.8730 109.6940 98° East 462 532 35,000  Level FlightAware ADS-B
Fri 07:15:12 AM -6.8870 109.7920 98° East 461 531 35,000  Level FlightAware ADS-B
Fri 07:15:46 AM -6.8990 109.8720 99° East 461 531 35,000  Level FlightAware ADS-B
Fri 07:16:16 AM -6.9090 109.9350 99° East 461 531 35,000  Level FlightAware ADS-B
Fri 07:16:54 AM -6.9210 110.0170 98° East 461 531 35,000  Level FlightAware ADS-B
Fri 07:17:30 AM -6.9320 110.0920 98° East 462 532 35,000  Level FlightAware ADS-B
Fri 07:18:09 AM -6.9420 110.1630 98° East 462 532 35,000  Level FlightAware ADS-B
Fri 07:18:45 AM -6.9510 110.2280 98° East 462 532 35,000  Level FlightAware ADS-B
Fri 07:19:21 AM -6.9600 110.2940 98° East 462 532 35,000  Level FlightAware ADS-B
Fri 07:19:57 AM -6.9690 110.3590 98° East 462 532 35,000  Level FlightAware ADS-B
Fri 07:20:31 AM -6.9780 110.4210 98° East 462 532 35,000  Level FlightAware ADS-B
Fri 07:21:07 AM -6.9870 110.4860 98° East 462 532 35,000  Level FlightAware ADS-B
Fri 07:21:43 AM -6.9960 110.5510 98° East 462 532 35,000  Level FlightAware ADS-B
Fri 07:22:19 AM -7.0050 110.6160 98° East 462 532 35,000  Level FlightAware ADS-B
Fri 07:22:56 AM -7.0140 110.6830 98° East 462 532 35,000  Level FlightAware ADS-B
Fri 07:23:32 AM -7.0240 110.7490 99° East 462 532 35,000  Level FlightAware ADS-B
Fri 07:24:08 AM -7.0330 110.8140 98° East 462 532 35,000  Level FlightAware ADS-B
Fri 07:24:44 AM -7.0420 110.8790 98° East 462 532 35,000  Level FlightAware ADS-B
Fri 07:25:21 AM -7.0510 110.9460 98° East 462 532 35,000  Level FlightAware ADS-B
Fri 07:25:58 AM -7.0600 111.0130 98° East 462 532 35,000  Level FlightAware ADS-B
Fri 07:26:44 AM -7.0720 111.0970 98° East 462 532 35,000  Level FlightAware ADS-B
Fri 07:27:21 AM -7.0810 111.1640 98° East 462 532 35,000  Level FlightAware ADS-B
Fri 07:29:00 AM -7.1080 111.3092 101° East  Level Estimated
Fri 07:30:00 AM -7.1243 111.3971 101° East  Level Estimated
Fri 07:31:00 AM -7.1406 111.4851 101° East  Level Estimated
Fri 07:32:00 AM -7.1569 111.5731 101° East  Level Estimated
Fri 07:33:00 AM -7.1732 111.6611 101° East  Level Estimated
Fri 07:34:00 AM -7.1894 111.7491 101° East  Level Estimated
Fri 07:35:00 AM -7.2057 111.8371 101° East  Level Estimated
Fri 07:36:00 AM -7.2219 111.9251 101° East  Level Estimated
Fri 07:37:00 AM -7.2381 112.0131 101° East  Level Estimated
Fri 07:38:00 AM -7.2543 112.1012 101° East  Level Estimated
Fri 07:39:00 AM -7.2705 112.1892 100° East  Level Estimated
Fri 07:40:00 AM -7.2867 112.2772 100° East  Level Estimated
Fri 07:41:00 AM -7.3028 112.3653 100° East  Level Estimated
Fri 07:42:00 AM -7.3189 112.4533 100° East  Level Estimated
Fri 07:43:00 AM -7.3350 112.5414 100° East  Level Estimated
Fri 07:44:00 AM -7.3511 112.6294 100° East  Level Estimated
Fri 07:45:00 AM -7.3672 112.7175 100° East  Level Estimated
Fri 07:46:00 AM -7.3798 112.7869 100° East  Level Estimated
Fri 07:47:00 AM -7.3798 112.7869 243° Southwest  Level Estimated
Fri 07:48:00 AM -7.3798 112.7869 243° Southwest  Level Estimated
Fri 07:49:00 AM -7.3798 112.7869 243° Southwest  Level Estimated
Fri 07:50:00 AM -7.3798 112.7869 243° Southwest  Level Estimated
Fri 07:51:00 AM -7.3798 112.7869 243° Southwest  Level Estimated
Fri 07:52:00 AM -7.3798 112.7869 243° Southwest  Level Estimated
Fri 07:53:00 AM -7.3798 112.7869 243° Southwest  Level Estimated
Fri 07:54:00 AM -7.3798 112.7869 243° Southwest  Level Estimated
Fri 07:55:00 AM -7.3798 112.7869 243° Southwest  Level Estimated
Fri 07:56:00 AM -7.3798 112.7869 243° Southwest  Level Estimated
Fri 07:57:00 AM -7.3798 112.7869 243° Southwest  Level Estimated
Fri 07:58:00 AM -7.3798 112.7869 243° Southwest  Level Estimated
Fri 07:59:00 AM -7.3798 112.7869 243° Southwest  Level Estimated
Fri 08:00:00 AM -7.3798 112.7869 243° Southwest  Level Estimated
Fri 08:01:00 AM -7.3798 112.7869 243° Southwest  Level Estimated
Fri 08:02:00 AM -7.3798 112.7869 243° Southwest  Level Estimated
Fri 08:03:00 AM -7.3798 112.7869 243° Southwest  Level Estimated
Fri 08:04:00 AM -7.3798 112.7869 243° Southwest  Level Estimated
Fri 08:05:00 AM -7.3798 112.7869 243° Southwest  Level Estimated
Fri 08:06:00 AM -7.3798 112.7869 243° Southwest  Level Estimated
Fri 08:07:00 AM -7.3798 112.7869 243° Southwest  Level Estimated
Fri 08:08:00 AM -7.3798 112.7869 243° Southwest  Level Estimated
Fri 08:09:00 AM -7.3798 112.7869 243° Southwest  Level Estimated
Fri 08:10:00 AM -7.3798 112.7869 243° Southwest  Level Estimated

Login

Don't have an account? Register now (free) for customized features, flight alerts, and more!